Time;durP1;ratioP1;P1;durP2;ratioP2;P2;SDS_P1;SDS_P2;PMS_P1;PMS_P2;Temp;Humidity;BMP_temperature;BMP_pressure;BME280_temperature;BME280_humidity;BME280_pressure;Samples;Min_cycle;Max_cycle;Signal;HPM_P1;HPM_P2
2022/03/02 00:00:34;;;;;;;51.28;32.13;;;5.90;99.90;;;;;;4823878;29;20054;-88
2022/03/02 00:03:00;;;;;;;51.15;31.65;;;6.00;99.90;;;;;;4807477;29;20117;-90
2022/03/02 00:05:27;;;;;;;49.20;31.23;;;5.90;99.90;;;;;;4822292;29;20061;-90
2022/03/02 00:07:53;;;;;;;47.63;30.92;;;5.60;99.90;;;;;;4805890;29;20453;-86
2022/03/02 00:10:19;;;;;;;47.90;30.48;;;8.20;99.90;;;;;;4806384;29;20050;-86
2022/03/02 00:12:45;;;;;;;50.75;31.42;;;6.20;99.90;;;;;;4807612;29;20518;-87
2022/03/02 00:15:10;;;;;;;50.28;30.35;;;6.10;99.90;;;;;;4823996;29;20055;-86
2022/03/02 00:17:37;;;;;;;48.63;31.10;;;;;;;;;;4824151;29;20493;-86
2022/03/02 00:20:05;;;;;;;47.08;29.83;;;5.90;99.90;;;;;;4807604;29;20058;-85
2022/03/02 00:22:30;;;;;;;;;;;5.90;99.90;;;;;;4824944;29;20093;-86
2022/03/02 00:24:56;;;;;;;52.78;29.48;;;5.90;99.90;;;;;;4807784;29;19971;-86
2022/03/02 00:27:24;;;;;;;49.72;29.98;;;5.90;99.90;;;;;;4823204;29;20046;-86
2022/03/02 00:29:51;;;;;;;51.53;30.85;;;8.20;99.90;;;;;;4835020;29;20061;-86
2022/03/02 00:32:16;;;;;;;50.22;30.80;;;5.90;99.90;;;;;;4845143;29;20048;-86
2022/03/02 00:34:42;;;;;;;48.80;30.98;;;6.30;99.90;;;;;;4815526;29;20046;-86
2022/03/02 00:37:08;;;;;;;49.35;30.15;;;7.30;99.90;;;;;;4830120;29;20110;-86
2022/03/02 00:39:34;;;;;;;47.90;28.83;;;5.90;99.90;;;;;;4844796;29;20065;-86
2022/03/02 00:42:02;;;;;;;49.20;30.02;;;6.10;99.90;;;;;;4827937;29;20068;-89
2022/03/02 00:44:28;;;;;;;51.28;30.88;;;5.90;99.90;;;;;;4815377;29;20053;-88
2022/03/02 00:46:54;;;;;;;45.97;29.67;;;5.80;99.90;;;;;;4820871;29;20707;-88
2022/03/02 00:49:24;;;;;;;52.38;30.65;;;;;;;;;;4822127;29;20141;-89
2022/03/02 00:51:50;;;;;;;48.95;30.58;;;5.90;99.90;;;;;;4805914;29;20061;-87
2022/03/02 00:54:16;;;;;;;55.42;29.85;;;5.90;99.90;;;;;;4805220;29;20558;-88
2022/03/02 00:56:42;;;;;;;51.42;30.83;;;6.80;99.90;;;;;;4822042;29;20124;-89
2022/03/02 00:59:07;;;;;;;47.58;30.35;;;4.40;99.90;;;;;;4804882;29;20119;-89
2022/03/02 01:01:33;;;;;;;57.13;31.38;;;7.10;99.90;;;;;;4805931;29;20061;-87
2022/03/02 01:03:59;;;;;;;49.80;31.23;;;7.40;99.90;;;;;;4820393;29;20084;-88
2022/03/02 01:06:24;;;;;;;51.55;30.58;;;5.70;99.90;;;;;;4821407;29;20054;-88
2022/03/02 01:08:51;;;;;;;48.80;30.65;;;;;;;;;;4805800;29;20058;-88
2022/03/02 01:11:16;;;;;;;54.72;30.70;;;5.80;99.90;;;;;;4820892;29;20062;-88
2022/03/02 01:13:42;;;;;;;53.17;31.95;;;6.00;99.90;;;;;;4821324;29;20330;-88
2022/03/02 01:16:08;;;;;;;48.65;29.77;;;7.70;99.90;;;;;;4821366;29;20054;-88
2022/03/02 01:18:34;;;;;;;49.17;30.83;;;5.60;99.90;;;;;;4821658;29;20046;-87
2022/03/02 01:20:59;;;;;;;51.80;31.60;;;6.00;99.90;;;;;;4821311;29;20066;-87
2022/03/02 01:23:26;;;;;;;48.42;30.52;;;5.30;99.90;;;;;;4821514;29;20046;-88
2022/03/02 01:25:52;;;;;;;50.58;29.88;;;8.00;99.90;;;;;;4804204;29;20452;-89
2022/03/02 01:28:18;;;;;;;54.63;30.80;;;6.50;99.90;;;;;;4821084;29;20063;-88
2022/03/02 01:30:44;;;;;;;48.47;30.40;;;;;;;;;;4821373;29;20058;-87
2022/03/02 01:33:10;;;;;;;51.22;31.10;;;5.10;99.90;;;;;;4821568;29;20042;-87
2022/03/02 01:35:36;;;;;;;51.03;32.25;;;7.70;99.90;;;;;;4807085;29;20065;-87
2022/03/02 01:38:01;;;;;;;51.30;31.50;;;5.60;99.90;;;;;;4821430;29;20061;-88
2022/03/02 01:40:27;;;;;;;46.83;30.30;;;6.80;99.90;;;;;;4820082;29;20066;-87
2022/03/02 01:42:53;;;;;;;54.13;31.58;;;5.90;99.90;;;;;;4821913;29;20050;-87
2022/03/02 01:45:21;;;;;;;49.83;30.13;;;5.90;99.90;;;;;;4819481;29;20171;-89
2022/03/02 01:47:47;;;;;;;55.38;29.58;;;6.00;99.90;;;;;;4820445;29;20090;-88
2022/03/02 01:50:14;;;;;;;52.47;30.48;;;5.70;99.90;;;;;;4819992;29;20054;-90
2022/03/02 01:52:40;;;;;;;49.37;28.93;;;7.20;99.90;;;;;;4804826;29;20055;-88
2022/03/02 01:55:07;;;;;;;55.08;32.05;;;5.80;99.90;;;;;;4820990;29;20141;-88
2022/03/02 01:57:33;;;;;;;54.10;33.60;;;5.40;99.90;;;;;;4821477;29;20057;-86
2022/03/02 01:59:59;;;;;;;60.38;34.00;;;5.80;99.90;;;;;;4822202;29;20058;-88
2022/03/02 02:02:25;;;;;;;53.50;32.30;;;6.10;99.90;;;;;;4805453;29;20069;-87
2022/03/02 02:04:51;;;;;;;56.63;33.10;;;7.10;99.90;;;;;;4820482;29;20160;-86
2022/03/02 02:07:17;;;;;;;59.30;33.22;;;7.20;99.90;;;;;;4821126;29;20058;-87
2022/03/02 02:09:42;;;;;;;56.00;33.63;;;5.80;99.90;;;;;;4819905;29;20069;-88
2022/03/02 02:12:09;;;;;;;56.83;33.08;;;4.10;99.90;;;;;;4775197;29;20054;-88
2022/03/02 02:14:35;;;;;;;59.10;33.85;;;;;;;;;;4820936;29;20111;-88
2022/03/02 02:17:00;;;;;;;56.13;32.75;;;5.40;99.90;;;;;;4803952;29;20062;-88
2022/03/02 02:19:26;;;;;;;55.58;33.63;;;6.70;99.90;;;;;;4804271;29;20465;-89
2022/03/02 02:21:52;;;;;;;62.53;34.00;;;6.50;99.90;;;;;;4803928;29;20057;-88
2022/03/02 02:24:18;;;;;;;49.70;32.10;;;6.10;99.90;;;;;;4819286;29;20232;-89
2022/03/02 02:26:45;;;;;;;56.05;32.47;;;5.70;99.90;;;;;;4820415;29;20054;-88
2022/03/02 02:29:11;;;;;;;54.00;34.28;;;5.70;99.90;;;;;;4820027;29;20496;-88
2022/03/02 02:31:37;;;;;;;59.50;33.67;;;7.80;99.90;;;;;;4821424;29;20400;-89
2022/03/02 02:34:03;;;;;;;60.58;34.22;;;7.60;99.90;;;;;;4821450;29;20054;-88
2022/03/02 02:36:29;;;;;;;60.08;34.40;;;;;;;;;;4821507;29;20065;-88
2022/03/02 02:38:55;;;;;;;59.83;34.67;;;5.60;99.90;;;;;;4804870;29;20078;-88
2022/03/02 02:41:20;;;;;;;57.83;35.30;;;7.20;99.90;;;;;;4803496;29;20354;-88
2022/03/02 02:43:47;;;;;;;57.08;35.47;;;5.60;99.90;;;;;;4820282;29;20616;-88
2022/03/02 02:46:13;;;;;;;65.55;36.20;;;5.40;99.90;;;;;;4820151;29;20057;-86
2022/03/02 02:48:44;;;;;;;61.47;36.97;;;7.70;99.90;;;;;;4820661;29;20150;-87
2022/03/02 02:51:10;;;;;;;58.40;36.42;;;6.90;99.90;;;;;;4819044;29;20201;-87
2022/03/02 02:53:35;;;;;;;60.65;36.38;;;7.70;99.90;;;;;;4803841;29;20052;-87
2022/03/02 02:56:02;;;;;;;58.75;37.17;;;7.60;99.90;;;;;;4819334;29;20116;-89
2022/03/02 02:58:28;;;;;;;64.38;36.33;;;5.80;99.90;;;;;;4818964;29;20050;-87
2022/03/02 03:00:53;;;;;;;64.35;38.17;;;7.80;99.90;;;;;;4820514;29;20061;-87
2022/03/02 03:03:19;;;;;;;66.57;39.22;;;7.10;99.90;;;;;;4820237;29;20050;-88
2022/03/02 03:05:45;;;;;;;61.75;35.97;;;5.40;99.90;;;;;;4821888;29;20122;-87
2022/03/02 03:08:12;;;;;;;59.05;36.35;;;6.90;99.90;;;;;;4820763;29;20053;-88
2022/03/02 03:10:41;;;;;;;64.00;38.37;;;5.40;99.90;;;;;;4805288;29;20055;-88
2022/03/02 03:13:07;;;;;;;66.97;38.05;;;4.70;99.90;;;;;;4807508;29;20092;-88
2022/03/02 03:15:34;;;;;;;63.72;38.78;;;5.10;99.90;;;;;;4808054;29;20054;-87
2022/03/02 03:18:00;;;;;;;62.08;39.35;;;6.70;99.90;;;;;;4824640;29;20050;-87
2022/03/02 03:20:26;;;;;;;66.00;39.17;;;5.50;99.90;;;;;;4823687;29;20134;-88
2022/03/02 03:22:54;;;;;;;61.30;38.90;;;5.20;99.90;;;;;;4823061;29;20508;-87
2022/03/02 03:25:21;;;;;;;66.10;39.63;;;5.30;99.90;;;;;;4822732;29;20510;-87
2022/03/02 03:27:47;;;;;;;61.97;38.23;;;7.40;99.90;;;;;;4807396;29;20062;-86
2022/03/02 03:30:14;;;;;;;67.97;40.40;;;4.90;99.90;;;;;;4822217;29;20288;-87
2022/03/02 03:32:41;;;;;;;65.63;39.10;;;4.40;99.90;;;;;;4823243;29;20054;-87
2022/03/02 03:35:08;;;;;;;63.25;38.58;;;4.90;99.90;;;;;;4824593;29;20054;-87
2022/03/02 03:37:34;;;;;;;68.65;40.70;;;5.70;99.90;;;;;;4824929;29;20420;-87
2022/03/02 03:40:00;;;;;;;67.80;40.03;;;5.60;99.90;;;;;;4823865;29;20043;-87
2022/03/02 03:42:26;;;;;;;67.50;40.88;;;3.70;99.90;;;;;;4807669;29;20053;-89
2022/03/02 03:44:52;;;;;;;70.45;40.92;;;4.80;99.90;;;;;;4823745;29;20126;-86
2022/03/02 03:47:18;;;;;;;66.00;40.05;;;4.60;99.90;;;;;;4822981;29;20103;-86
2022/03/02 03:49:44;;;;;;;66.47;39.30;;;;;;;;;;4821766;29;20054;-87
2022/03/02 03:52:10;;;;;;;68.97;40.45;;;5.00;99.90;;;;;;4805742;29;20526;-87
2022/03/02 03:54:36;;;;;;;76.38;41.60;;;4.80;99.90;;;;;;4823017;29;20061;-87
2022/03/02 03:57:03;;;;;;;68.13;39.92;;;4.50;99.90;;;;;;4791320;29;20051;-89
2022/03/02 03:59:28;;;;;;;72.60;41.67;;;3.70;99.90;;;;;;4822861;29;20054;-87
2022/03/02 04:01:54;;;;;;;75.32;41.92;;;4.80;99.90;;;;;;4821444;29;20465;-86
2022/03/02 04:04:20;;;;;;;71.05;41.70;;;5.40;99.90;;;;;;4806311;29;20124;-87
2022/03/02 04:06:45;;;;;;;72.55;42.00;;;4.50;99.90;;;;;;4822245;29;20050;-87
2022/03/02 04:09:11;;;;;;;68.15;40.63;;;3.80;99.90;;;;;;4805915;29;20408;-88
2022/03/02 04:11:38;;;;;;;66.93;41.47;;;4.10;99.90;;;;;;4822783;29;20388;-88
2022/03/02 04:14:04;;;;;;;67.22;39.92;;;6.60;99.90;;;;;;4820483;29;20066;-87
2022/03/02 04:16:29;;;;;;;68.80;42.17;;;4.30;99.90;;;;;;4822177;29;20054;-87
2022/03/02 04:18:55;;;;;;;74.95;42.97;;;4.20;99.90;;;;;;4822236;29;20089;-88
2022/03/02 04:21:21;;;;;;;76.25;42.83;;;4.20;99.90;;;;;;4776320;29;20385;-88
2022/03/02 04:23:46;;;;;;;75.80;43.58;;;5.80;99.90;;;;;;4821419;29;20078;-87
2022/03/02 04:26:13;;;;;;;71.68;41.95;;;;;;;;;;4822865;29;20057;-89
2022/03/02 04:28:38;;;;;;;71.03;42.55;;;4.10;99.90;;;;;;4820716;29;20089;-88
2022/03/02 04:31:04;;;;;;;73.38;41.20;;;3.80;99.90;;;;;;4822721;29;20046;-87
2022/03/02 04:33:30;;;;;;;75.70;42.20;;;4.20;99.90;;;;;;4807877;29;20527;-87
2022/03/02 04:35:56;;;;;;;74.78;43.25;;;4.00;99.90;;;;;;4807111;29;20132;-88
2022/03/02 04:38:22;;;;;;;79.90;43.75;;;4.60;99.90;;;;;;4822891;29;20054;-87
2022/03/02 04:40:49;;;;;;;77.82;44.90;;;3.60;99.90;;;;;;4808077;29;20515;-87
2022/03/02 04:43:14;;;;;;;73.75;42.08;;;6.60;99.90;;;;;;4805700;29;20066;-90
2022/03/02 04:45:40;;;;;;;75.03;44.67;;;5.30;99.90;;;;;;4806372;29;20058;-87
2022/03/02 04:48:08;;;;;;;77.28;43.60;;;5.40;99.90;;;;;;4822888;29;20050;-87
2022/03/02 04:50:35;;;;;;;75.32;43.95;;;3.30;99.90;;;;;;4822821;29;20266;-87
2022/03/02 04:53:01;;;;;;;76.35;43.78;;;3.10;99.90;;;;;;4822629;29;20072;-87
2022/03/02 04:55:27;;;;;;;83.55;44.95;;;3.10;1.00;;;;;;4822492;29;20054;-87
2022/03/02 04:57:55;;;;;;;74.10;43.60;;;4.40;1.00;;;;;;4823038;29;20387;-87
2022/03/02 05:00:28;;;;;;;81.03;45.03;;;1.90;1.00;;;;;;4823195;29;20054;-87
2022/03/02 05:02:55;;;;;;;83.43;44.83;;;4.20;1.00;;;;;;4807395;29;20549;-88
2022/03/02 05:05:23;;;;;;;85.67;44.93;;;4.40;1.00;;;;;;4807398;29;20065;-87
2022/03/02 05:07:49;;;;;;;85.38;45.17;;;4.40;1.00;;;;;;4822650;29;20113;-87
2022/03/02 05:10:17;;;;;;;80.47;44.70;;;5.00;1.00;;;;;;4823882;29;20138;-87
2022/03/02 05:12:44;;;;;;;84.53;43.95;;;4.20;1.00;;;;;;4823207;29;20162;-87
2022/03/02 05:15:17;;;;;;;82.97;45.72;;;4.60;1.00;;;;;;4822510;29;20059;-88
2022/03/02 05:17:44;;;;;;;79.88;44.25;;;2.80;1.00;;;;;;4822875;29;20050;-87
2022/03/02 05:20:11;;;;;;;94.38;46.17;;;2.00;1.00;;;;;;4823455;29;20062;-87
2022/03/02 05:22:37;;;;;;;79.80;44.42;;;1.90;1.00;;;;;;4823274;29;20054;-87
2022/03/02 05:25:05;;;;;;;90.90;48.55;;;2.70;1.00;;;;;;4822787;29;20466;-87
2022/03/02 05:27:31;;;;;;;81.57;44.88;;;2.70;1.00;;;;;;4822459;29;20050;-87
2022/03/02 05:29:57;;;;;;;84.60;45.08;;;5.30;5.50;;;;;;4806569;29;20487;-87
2022/03/02 05:32:23;;;;;;;83.57;46.40;;;2.50;7.90;;;;;;4805795;29;20050;-87
2022/03/02 05:34:48;;;;;;;78.03;44.42;;;4.70;4.10;;;;;;4805329;29;20101;-87
2022/03/02 05:37:14;;;;;;;85.70;45.63;;;4.90;14.30;;;;;;4821824;29;20086;-88
2022/03/02 05:39:40;;;;;;;84.13;45.30;;;5.10;27.70;;;;;;4805831;29;20046;-87
2022/03/02 05:42:06;;;;;;;80.70;43.88;;;2.60;37.80;;;;;;4823254;29;20058;-88
2022/03/02 05:44:32;;;;;;;81.05;45.78;;;2.60;40.10;;;;;;4791674;29;20141;-87
2022/03/02 05:46:58;;;;;;;80.75;44.65;;;3.40;52.30;;;;;;4822995;29;20471;-87
2022/03/02 05:49:24;;;;;;;88.72;47.28;;;2.90;69.60;;;;;;4806081;29;20140;-87
2022/03/02 05:51:49;;;;;;;89.97;46.47;;;3.40;81.00;;;;;;4806152;29;20054;-87
2022/03/02 05:54:15;;;;;;;78.05;45.03;;;3.70;71.20;;;;;;4821879;29;20057;-87
2022/03/02 05:56:41;;;;;;;84.03;45.90;;;2.30;92.50;;;;;;4806584;29;20219;-87
2022/03/02 05:59:10;;;;;;;82.95;45.83;;;2.30;99.90;;;;;;4791501;29;20145;-87
2022/03/02 06:01:36;;;;;;;95.25;47.17;;;4.00;99.10;;;;;;4822585;29;20058;-87
2022/03/02 06:04:03;;;;;;;88.60;46.65;;;3.30;99.90;;;;;;4805977;29;20090;-88
2022/03/02 06:06:29;;;;;;;87.80;47.80;;;1.40;99.90;;;;;;4776292;29;20548;-88
2022/03/02 06:08:56;;;;;;;83.85;45.30;;;4.20;99.90;;;;;;4806452;29;20477;-87
2022/03/02 06:11:23;;;;;;;89.80;47.10;;;3.20;99.90;;;;;;4806346;29;20050;-87
2022/03/02 06:13:50;;;;;;;84.97;47.05;;;1.10;99.90;;;;;;4805335;29;20420;-87
2022/03/02 06:16:16;;;;;;;90.50;47.50;;;2.20;99.90;;;;;;4821735;29;20054;-87
2022/03/02 06:18:42;;;;;;;114.18;46.92;;;2.20;99.90;;;;;;4805842;29;20061;-87
2022/03/02 06:21:10;;;;;;;87.53;45.33;;;2.20;99.90;;;;;;4806029;29;20111;-87
2022/03/02 06:23:35;;;;;;;107.00;48.55;;;2.60;99.90;;;;;;4821587;29;20069;-88
2022/03/02 06:26:01;;;;;;;91.30;45.78;;;2.10;99.90;;;;;;4806259;29;20047;-88
2022/03/02 06:28:27;;;;;;;83.60;46.15;;;4.70;99.90;;;;;;4821252;29;20464;-88
2022/03/02 06:30:53;;;;;;;89.25;45.45;;;1.50;99.90;;;;;;4822059;29;20472;-88
2022/03/02 06:33:20;;;;;;;90.82;45.38;;;1.80;99.90;;;;;;4821561;29;20050;-88
2022/03/02 06:35:48;;;;;;;90.72;47.22;;;1.90;99.90;;;;;;4821961;29;20054;-87
2022/03/02 06:38:13;;;;;;;;;;;4.30;99.90;;;;;;4791943;29;20060;-88
2022/03/02 06:40:50;;;;;;;82.07;44.92;;;0.30;99.90;;;;;;4805722;29;19924;-88
2022/03/02 06:43:20;;;;;;;88.35;44.80;;;4.70;99.90;;;;;;4806676;29;20058;-87
2022/03/02 06:45:58;;;;;;;94.80;46.92;;;4.20;99.90;;;;;;4822859;29;20050;-88
2022/03/02 06:48:32;;;;;;;91.35;47.90;;;2.50;99.90;;;;;;4826368;29;20134;-88
2022/03/02 06:51:00;;;;;;;94.20;46.40;;;3.90;99.90;;;;;;4825935;29;20423;-88
2022/03/02 06:53:32;;;;;;;97.75;48.40;;;2.00;99.90;;;;;;4809612;29;20102;-88
2022/03/02 06:56:06;;;;;;;97.85;47.97;;;2.00;99.90;;;;;;4809684;29;20050;-87
2022/03/02 06:58:42;;;;;;;82.60;45.63;;;2.10;99.90;;;;;;4826138;29;20053;-87
2022/03/02 07:01:13;;;;;;;88.40;46.38;;;2.10;99.90;;;;;;4826245;29;20054;-86
2022/03/02 07:03:47;;;;;;;109.38;47.78;;;2.00;99.90;;;;;;4809890;29;20058;-87
2022/03/02 07:06:16;;;;;;;95.47;48.53;;;2.00;99.90;;;;;;4810082;29;20058;-87
2022/03/02 07:08:44;;;;;;;106.15;47.53;;;3.00;99.90;;;;;;4824960;29;20058;-87
2022/03/02 07:11:10;;;;;;;102.20;48.78;;;2.30;99.90;;;;;;4826130;29;20117;-87
2022/03/02 07:13:36;;;;;;;96.93;50.55;;;;;;;;;;4826281;29;20373;-87
2022/03/02 07:16:02;;;;;;;102.70;48.85;;;2.40;99.90;;;;;;4825745;29;20047;-88
2022/03/02 07:18:28;;;;;;;88.95;47.60;;;2.20;99.90;;;;;;4809894;29;20050;-87
2022/03/02 07:20:57;;;;;;;97.80;49.33;;;2.70;99.90;;;;;;4826049;29;20050;-87
2022/03/02 07:23:27;;;;;;;85.80;46.95;;;4.20;99.90;;;;;;4809868;29;20050;-87
2022/03/02 07:25:58;;;;;;;105.32;49.03;;;4.50;99.90;;;;;;4826146;29;20074;-87
2022/03/02 07:28:26;;;;;;;86.28;47.20;;;3.80;99.90;;;;;;4809749;29;20118;-87
2022/03/02 07:30:53;;;;;;;;;;;5.20;99.90;;;;;;4826572;29;20054;-86
2022/03/02 07:33:21;;;;;;;85.95;48.05;;;2.50;99.90;;;;;;4825276;29;19929;-86
2022/03/02 07:35:55;;;;;;;88.35;47.72;;;3.10;99.90;;;;;;4825103;29;20054;-87
2022/03/02 07:38:21;;;;;;;74.35;44.42;;;2.50;98.00;;;;;;4809646;29;20146;-87
2022/03/02 07:40:48;;;;;;;83.70;44.70;;;;;;;;;;4825088;29;20086;-87
2022/03/02 07:43:15;;;;;;;85.20;46.65;;;3.00;16.30;;;;;;4809339;29;20061;-88
2022/03/02 07:45:41;;;;;;;86.75;46.38;;;2.60;22.30;;;;;;4824891;29;20054;-87
2022/03/02 07:48:07;;;;;;;88.85;44.45;;;3.40;6.20;;;;;;4825567;29;20056;-87
2022/03/02 07:50:33;;;;;;;81.93;44.58;;;5.50;1.00;;;;;;4808166;29;20054;-88
2022/03/02 07:53:01;;;;;;;81.90;45.33;;;2.90;1.00;;;;;;4794403;29;20480;-88
2022/03/02 07:55:28;;;;;;;81.35;46.58;;;5.30;1.00;;;;;;4825458;29;20050;-87
2022/03/02 07:57:55;;;;;;;73.65;42.70;;;3.30;1.00;;;;;;4808609;29;20050;-86
2022/03/02 08:00:21;;;;;;;81.95;43.08;;;3.40;1.00;;;;;;4825172;29;20133;-87
2022/03/02 08:02:51;;;;;;;78.82;42.50;;;3.40;1.00;;;;;;4825209;29;20450;-87
2022/03/02 08:05:24;;;;;;;77.18;44.00;;;3.30;1.00;;;;;;4825358;29;20060;-87
2022/03/02 08:07:50;;;;;;;70.40;41.35;;;4.70;1.00;;;;;;4793929;29;20326;-86
2022/03/02 08:10:17;;;;;;;67.00;39.58;;;4.10;1.00;;;;;;4809284;29;20196;-88
2022/03/02 08:12:44;;;;;;;76.88;42.75;;;3.70;1.00;;;;;;4823504;29;20092;-88
2022/03/02 08:15:10;;;;;;;79.68;41.08;;;3.60;1.00;;;;;;4808863;29;20136;-88
2022/03/02 08:17:36;;;;;;;71.60;41.70;;;4.70;1.00;;;;;;4824970;29;20529;-87
2022/03/02 08:20:04;;;;;;;73.05;43.53;;;3.20;1.00;;;;;;4809209;29;20058;-88
2022/03/02 08:22:31;;;;;;;71.05;40.30;;;3.80;1.00;;;;;;4824672;29;20515;-87
2022/03/02 08:25:07;;;;;;;69.80;39.55;;;3.80;1.00;;;;;;4824776;29;20060;-88
2022/03/02 08:27:33;;;;;;;68.05;40.05;;;5.70;99.90;;;;;;4808399;29;20042;-88
2022/03/02 08:30:02;;;;;;;70.72;40.72;;;3.90;99.90;;;;;;4824577;29;20115;-88
2022/03/02 08:32:37;;;;;;;73.13;39.50;;;5.10;99.90;;;;;;4808026;29;20484;-88
2022/03/02 08:35:04;;;;;;;63.97;38.50;;;5.70;99.90;;;;;;4824748;29;20150;-88
2022/03/02 08:37:31;;;;;;;62.13;37.47;;;4.60;99.90;;;;;;4793445;29;20054;-88
2022/03/02 08:39:57;;;;;;;66.40;36.78;;;;;;;;;;4824299;29;20290;-88
2022/03/02 08:42:23;;;;;;;63.10;36.95;;;5.80;99.90;;;;;;4808201;29;20100;-88
2022/03/02 08:44:49;;;;;;;67.85;36.25;;;;;;;;;;4807901;29;20456;-88
2022/03/02 08:47:16;;;;;;;60.60;36.03;;;;;;;;;;4824010;29;20377;-87
2022/03/02 08:49:41;;;;;;;70.38;38.15;;;6.40;99.90;;;;;;4808014;29;20515;-88
2022/03/02 08:52:08;;;;;;;64.03;36.10;;;6.30;99.90;;;;;;4817881;29;20043;-84
2022/03/02 08:54:57;;;;;;;54.03;33.40;;;6.40;99.90;;;;;;4813349;29;20050;-84
2022/03/02 08:57:26;;;;;;;50.47;29.85;;;8.10;99.90;;;;;;4823379;29;20096;-85
2022/03/02 08:59:56;;;;;;;49.45;28.33;;;12.40;99.90;;;;;;4814431;29;20043;-85
2022/03/02 09:02:29;;;;;;;42.15;26.58;;;12.60;97.70;;;;;;4827362;29;20062;-84
2022/03/02 09:05:00;;;;;;;47.58;27.42;;;11.80;39.90;;;;;;4826873;29;20046;-86
2022/03/02 09:07:26;;;;;;;;;;;13.00;9.50;;;;;;4829618;29;20455;-88
2022/03/02 09:09:51;;;;;;;40.28;25.02;;;14.30;1.00;;;;;;4824207;29;20031;-89
2022/03/02 09:12:18;;;;;;;44.83;25.65;;;14.20;1.00;;;;;;4824937;29;20051;-88
2022/03/02 09:14:44;;;;;;;42.60;25.25;;;14.90;1.00;;;;;;4810295;29;20480;-88
2022/03/02 09:17:10;;;;;;;41.92;24.52;;;15.40;1.00;;;;;;4826484;29;20054;-88
2022/03/02 09:19:39;;;;;;;45.88;25.60;;;16.00;1.00;;;;;;4809913;29;20539;-88
2022/03/02 09:22:05;;;;;;;42.17;24.60;;;16.50;1.00;;;;;;4835304;29;20180;-88
2022/03/02 09:24:31;;;;;;;39.78;23.60;;;16.80;1.00;;;;;;4824590;29;20343;-88
2022/03/02 09:27:01;;;;;;;41.17;24.13;;;17.20;1.00;;;;;;4824870;29;20050;-89
2022/03/02 09:29:31;;;;;;;44.53;23.73;;;17.50;1.00;;;;;;4825830;29;20065;-89
2022/03/02 09:31:59;;;;;;;44.80;25.15;;;17.80;1.00;;;;;;4808452;29;20106;-88
2022/03/02 09:34:30;;;;;;;35.28;21.40;;;18.30;1.00;;;;;;4809150;29;20058;-89
2022/03/02 09:36:57;;;;;;;38.78;22.83;;;18.40;1.00;;;;;;4825534;29;20122;-88
2022/03/02 09:39:23;;;;;;;36.90;23.15;;;18.40;1.00;;;;;;4794203;29;20049;-88
2022/03/02 09:42:11;;;;;;;39.30;22.27;;;18.80;1.00;;;;;;4825573;29;20057;-89
2022/03/02 09:44:47;;;;;;;38.47;22.48;;;19.20;1.00;;;;;;4824931;29;20129;-89
2022/03/02 09:47:20;;;;;;;35.35;22.35;;;19.10;1.00;;;;;;4824390;29;20107;-88
2022/03/02 09:49:53;;;;;;;38.17;22.65;;;19.50;1.00;;;;;;4823194;29;20054;-89
2022/03/02 09:52:20;;;;;;;36.42;21.85;;;19.50;1.00;;;;;;4823865;29;20216;-88
2022/03/02 09:54:51;;;;;;;40.03;22.67;;;20.00;1.00;;;;;;4807513;29;20137;-88
2022/03/02 09:57:19;;;;;;;37.10;21.80;;;20.00;1.00;;;;;;4808236;29;20058;-89
2022/03/02 09:59:48;;;;;;;;;;;20.20;1.00;;;;;;4808163;29;20058;-89
2022/03/02 10:02:37;;;;;;;34.65;21.27;;;19.20;1.00;;;;;;4792617;29;19960;-89
2022/03/02 10:05:16;;;;;;;33.10;20.73;;;18.20;1.00;;;;;;4807346;29;20165;-89
2022/03/02 10:07:54;;;;;;;35.45;20.05;;;17.20;1.00;;;;;;4807197;29;20203;-87
2022/03/02 10:10:23;;;;;;;37.25;21.75;;;16.70;1.00;;;;;;4807558;29;20090;-89
2022/03/02 10:12:54;;;;;;;34.38;19.45;;;16.30;1.00;;;;;;4823034;29;20420;-89
2022/03/02 10:15:20;;;;;;;31.55;19.65;;;15.40;1.00;;;;;;4823319;29;20078;-87
2022/03/02 10:17:48;;;;;;;33.75;20.05;;;15.10;1.00;;;;;;4823609;29;20449;-88
2022/03/02 10:20:18;;;;;;;35.53;21.05;;;14.70;1.00;;;;;;4792037;29;20053;-87
2022/03/02 10:23:09;;;;;;;34.28;20.58;;;13.30;1.00;;;;;;4806947;29;20066;-88
2022/03/02 10:25:53;;;;;;;33.28;19.85;;;12.90;1.00;;;;;;4823918;29;20488;-87
2022/03/02 10:28:30;;;;;;;37.33;21.25;;;12.00;1.00;;;;;;4808130;29;20137;-88
2022/03/02 10:31:23;;;;;;;38.47;22.20;;;11.30;1.00;;;;;;4822231;29;20092;-88
2022/03/02 10:33:54;;;;;;;38.22;22.00;;;11.20;1.00;;;;;;4823683;29;20064;-88
2022/03/02 10:36:24;;;;;;;37.67;22.67;;;10.80;1.00;;;;;;4823428;29;20489;-87
2022/03/02 10:38:59;;;;;;;34.53;21.10;;;10.50;1.00;;;;;;4823408;29;20058;-87
2022/03/02 10:41:27;;;;;;;35.35;21.27;;;10.40;1.00;;;;;;4807636;29;20061;-88
2022/03/02 10:43:53;;;;;;;36.80;21.27;;;10.30;1.00;;;;;;4791533;29;20141;-87
2022/03/02 10:46:21;;;;;;;32.17;20.50;;;10.40;1.00;;;;;;4807333;29;20058;-87
2022/03/02 10:49:21;;;;;;;35.83;22.23;;;11.00;1.00;;;;;;4806834;29;20141;-87
2022/03/02 10:51:47;;;;;;;36.33;21.45;;;11.70;1.00;;;;;;4821974;29;20047;-87
2022/03/02 10:54:23;;;;;;;37.17;21.25;;;11.60;1.00;;;;;;4791583;29;20058;-87
2022/03/02 10:56:53;;;;;;;33.60;20.77;;;11.60;1.00;;;;;;4823436;29;20141;-87
2022/03/02 10:59:23;;;;;;;35.17;21.13;;;12.60;1.00;;;;;;4807895;29;20050;-87
2022/03/02 11:01:53;;;;;;;34.30;19.98;;;11.90;1.00;;;;;;4822921;29;20138;-86
2022/03/02 11:04:21;;;;;;;34.55;21.25;;;12.50;1.00;;;;;;4807375;29;20510;-87
2022/03/02 11:06:47;;;;;;;33.20;20.25;;;13.60;1.00;;;;;;4807069;29;20053;-86
2022/03/02 11:09:16;;;;;;;37.47;20.77;;;14.90;1.00;;;;;;4823344;29;20457;-87
2022/03/02 11:11:42;;;;;;;32.75;21.13;;;16.10;1.00;;;;;;4807288;29;20053;-87
2022/03/02 11:14:09;;;;;;;37.78;21.38;;;17.00;1.00;;;;;;4806110;29;20150;-87
2022/03/02 11:16:36;;;;;;;32.67;20.40;;;17.60;1.00;;;;;;4806969;29;20069;-87
2022/03/02 11:19:13;;;;;;;37.40;21.35;;;18.50;1.00;;;;;;4807150;29;20046;-87
2022/03/02 11:21:42;;;;;;;34.42;20.80;;;18.50;1.00;;;;;;4822221;29;20050;-87
2022/03/02 11:24:09;;;;;;;34.50;20.35;;;19.00;1.00;;;;;;4823045;29;20054;-87
2022/03/02 11:26:40;;;;;;;32.42;20.73;;;19.40;1.00;;;;;;4822080;29;20061;-87
2022/03/02 11:29:07;;;;;;;31.67;19.40;;;19.30;1.00;;;;;;4822846;29;20259;-88
2022/03/02 11:31:51;;;;;;;32.47;19.83;;;19.50;1.00;;;;;;4806367;29;20093;-87
2022/03/02 11:34:25;;;;;;;36.33;19.52;;;19.30;1.00;;;;;;4825268;29;20046;-87
2022/03/02 11:36:55;;;;;;;31.80;20.02;;;18.40;1.00;;;;;;4825336;29;20492;-87
2022/03/02 11:39:24;;;;;;;35.40;20.48;;;17.60;1.00;;;;;;4810373;29;20060;-87
2022/03/02 11:41:53;;;;;;;32.38;20.38;;;16.00;1.00;;;;;;4809291;29;20050;-89
2022/03/02 11:44:31;;;;;;;32.40;20.33;;;14.40;1.00;;;;;;4824533;29;20073;-87
2022/03/02 11:46:58;;;;;;;34.08;20.58;;;12.80;1.00;;;;;;4809362;29;20400;-88
2022/03/02 11:49:49;;;;;;;32.05;20.45;;;12.70;1.00;;;;;;4826113;29;20126;-88
2022/03/02 11:52:18;;;;;;;33.05;20.45;;;12.60;1.00;;;;;;4826064;29;20545;-87
2022/03/02 11:55:06;;;;;;;36.10;20.70;;;12.30;1.00;;;;;;4825694;29;20054;-87
2022/03/02 11:57:41;;;;;;;38.92;21.92;;;11.90;1.00;;;;;;4810529;29;20412;-88
2022/03/02 12:00:14;;;;;;;33.60;20.65;;;11.80;1.00;;;;;;4809955;29;20054;-88
2022/03/02 12:02:46;;;;;;;36.75;21.35;;;11.70;1.00;;;;;;4809759;29;20085;-88
2022/03/02 12:05:14;;;;;;;37.55;21.70;;;11.50;1.00;;;;;;4810032;29;20156;-88
2022/03/02 12:07:40;;;;;;;32.53;21.27;;;11.50;1.00;;;;;;4810473;29;20051;-89
2022/03/02 12:10:29;;;;;;;30.95;20.08;;;11.40;1.00;;;;;;4825860;29;20062;-87
2022/03/02 12:12:56;;;;;;;34.58;20.23;;;11.30;1.00;;;;;;4824997;29;20066;-87
2022/03/02 12:15:24;;;;;;;39.03;20.88;;;11.20;1.00;;;;;;4824375;29;20051;-88
2022/03/02 12:17:51;;;;;;;34.15;21.50;;;11.20;1.00;;;;;;4794781;29;20093;-87
2022/03/02 12:20:24;;;;;;;36.20;21.10;;;12.60;1.00;;;;;;4808689;29;20137;-88
2022/03/02 12:22:56;;;;;;;35.17;20.75;;;11.60;1.00;;;;;;4824273;29;20046;-88
2022/03/02 12:25:25;;;;;;;34.90;20.45;;;12.70;1.00;;;;;;4824333;29;20484;-88
2022/03/02 12:28:04;;;;;;;33.53;21.08;;;11.60;1.00;;;;;;4807901;29;20585;-87
2022/03/02 12:30:33;;;;;;;33.60;20.65;;;12.70;1.00;;;;;;4822587;29;20054;-88
2022/03/02 12:32:59;;;;;;;33.78;20.38;;;12.50;1.00;;;;;;4823953;29;20097;-87
2022/03/02 12:35:26;;;;;;;35.20;21.25;;;12.00;1.00;;;;;;4808863;29;20062;-89
2022/03/02 12:37:55;;;;;;;36.55;20.45;;;11.70;1.00;;;;;;4793893;29;20145;-88
2022/03/02 12:40:21;;;;;;;36.67;21.58;;;11.40;1.00;;;;;;4824682;29;20407;-88
2022/03/02 12:42:47;;;;;;;35.00;19.55;;;11.20;1.00;;;;;;4809232;29;20174;-88
2022/03/02 12:45:14;;;;;;;37.47;20.35;;;11.00;1.00;;;;;;4808634;29;20070;-87
2022/03/02 12:47:41;;;;;;;34.17;20.60;;;11.00;1.00;;;;;;4809143;29;20101;-87